Time;durP1;ratioP1;P1;durP2;ratioP2;P2;SDS_P1;SDS_P2;PMS_P1;PMS_P2;Temp;Humidity;BMP_temperature;BMP_pressure;BME280_temperature;BME280_humidity;BME280_pressure;Samples;Min_cycle;Max_cycle;Signal;HPM_P1;HPM_P2
2021/12/06 00:02:04;;;;;;;50.05;27.45;;;;;;;2.17;100.00;101299.78;10233985;28;20080;-72
2021/12/06 00:07:06;;;;;;;46.45;25.25;;;;;;;2.16;100.00;101308.97;10230666;28;20129;-70
2021/12/06 00:12:03;;;;;;;46.03;26.50;;;;;;;2.18;100.00;101301.44;10224017;28;20076;-69
2021/12/06 00:17:03;;;;;;;52.70;26.98;;;;;;;2.17;100.00;101305.19;10230309;28;20046;-70
2021/12/06 00:22:02;;;;;;;47.92;26.70;;;;;;;2.12;100.00;101307.00;10226988;28;20041;-69
2021/12/06 00:26:59;;;;;;;47.28;26.70;;;;;;;2.15;100.00;101311.91;10223282;28;20045;-68
2021/12/06 00:31:55;;;;;;;48.75;26.30;;;;;;;2.16;100.00;101314.38;10230346;28;20529;-69
2021/12/06 00:36:55;;;;;;;47.30;25.73;;;;;;;2.14;100.00;101311.09;10230241;28;20076;-71
2021/12/06 00:41:51;;;;;;;45.72;24.90;;;;;;;2.13;100.00;101298.66;10239623;28;20100;-69
2021/12/06 00:46:48;;;;;;;47.25;26.90;;;;;;;2.14;100.00;101316.50;10227569;28;20501;-69
2021/12/06 00:51:44;;;;;;;48.20;25.50;;;;;;;2.15;100.00;101325.38;10226777;28;20047;-69
2021/12/06 00:56:41;;;;;;;42.03;24.35;;;;;;;2.19;100.00;101335.44;10219690;28;20437;-70
2021/12/06 01:01:37;;;;;;;43.70;25.25;;;;;;;2.21;100.00;101332.50;10218008;28;20149;-70
2021/12/06 01:06:34;;;;;;;49.22;28.23;;;;;;;2.21;100.00;101341.41;10226407;28;20046;-72
2021/12/06 01:11:31;;;;;;;46.42;25.98;;;;;;;2.15;100.00;101342.38;10224147;28;20099;-69
2021/12/06 01:16:29;;;;;;;44.80;26.05;;;;;;;2.07;100.00;101348.22;10228126;28;20046;-69
2021/12/06 01:21:42;;;;;;;45.75;24.75;;;;;;;2.01;100.00;101351.88;10231161;28;20053;-70
2021/12/06 01:31:53;;;;;;;45.88;26.15;;;;;;;2.01;100.00;101376.97;10223164;28;20671;-72
2021/12/06 01:42:07;;;;;;;47.95;27.05;;;;;;;1.98;100.00;101382.03;10228325;28;20506;-72
2021/12/06 01:47:12;;;;;;;42.22;25.45;;;;;;;1.97;100.00;101386.59;10218637;28;20053;-72
2021/12/06 01:52:16;;;;;;;43.17;24.75;;;;;;;1.84;100.00;101385.03;10220431;28;20111;-72
2021/12/06 01:57:13;;;;;;;46.33;26.70;;;;;;;1.74;100.00;101382.19;10224883;28;20087;-72
2021/12/06 02:02:14;;;;;;;49.90;26.70;;;;;;;1.83;100.00;101391.50;10218061;28;20042;-72
2021/12/06 02:07:15;;;;;;;54.05;27.83;;;;;;;1.85;100.00;101389.38;11042583;23;20130;-71
2021/12/06 02:12:12;;;;;;;46.90;26.13;;;;;;;1.85;100.00;101388.56;10072813;28;20047;-72
2021/12/06 02:17:19;;;;;;;47.38;27.42;;;;;;;1.91;100.00;101394.88;10070488;28;20504;-71
2021/12/06 02:22:21;;;;;;;44.72;26.85;;;;;;;1.86;100.00;101391.03;10077717;28;20117;-71
2021/12/06 02:27:20;;;;;;;48.40;26.80;;;;;;;1.84;100.00;101379.66;10075176;28;20135;-70
2021/12/06 02:32:20;;;;;;;48.05;25.90;;;;;;;1.80;100.00;101370.41;10076766;28;20512;-70
2021/12/06 02:37:23;;;;;;;48.47;27.00;;;;;;;1.77;100.00;101386.28;10078412;28;20575;-70
2021/12/06 02:42:28;;;;;;;45.35;26.92;;;;;;;1.66;100.00;101390.66;10068306;28;20051;-72
2021/12/06 02:47:24;;;;;;;45.75;26.48;;;;;;;1.55;100.00;101394.22;10071694;28;20134;-72
2021/12/06 02:52:21;;;;;;;42.90;24.92;;;;;;;1.40;100.00;101389.34;10077535;28;20126;-70
2021/12/06 02:57:21;;;;;;;44.72;23.98;;;;;;;1.22;100.00;101391.16;10078250;28;20047;-70
2021/12/06 03:02:20;;;;;;;44.65;25.48;;;;;;;1.11;100.00;101393.88;10091020;28;20539;-70
2021/12/06 03:07:20;;;;;;;45.53;26.25;;;;;;;1.01;100.00;101397.19;10082727;28;20079;-70
2021/12/06 03:12:22;;;;;;;45.42;25.70;;;;;;;0.91;100.00;101405.06;10074742;28;20047;-71
2021/12/06 03:17:21;;;;;;;48.97;25.58;;;;;;;0.81;100.00;101402.94;10073475;28;20074;-70
2021/12/06 03:22:18;;;;;;;42.65;24.52;;;;;;;0.80;100.00;101409.41;10074207;28;20051;-71
2021/12/06 03:27:16;;;;;;;43.30;24.02;;;;;;;0.70;100.00;101415.38;10068486;28;20793;-71
2021/12/06 03:32:12;;;;;;;43.92;24.33;;;;;;;0.63;100.00;101418.19;10076112;28;20508;-71
2021/12/06 03:37:15;;;;;;;44.20;25.80;;;;;;;0.58;100.00;101423.47;10069834;28;20074;-72
2021/12/06 03:42:18;;;;;;;41.95;24.58;;;;;;;0.53;100.00;101419.81;10063204;29;20058;-72
2021/12/06 03:47:29;;;;;;;46.42;24.83;;;;;;;0.51;100.00;101428.13;10056794;28;20074;-72
2021/12/06 03:52:26;;;;;;;47.78;25.67;;;;;;;0.52;100.00;101440.53;10062995;28;20075;-72
2021/12/06 03:57:24;;;;;;;48.00;25.65;;;;;;;0.57;100.00;101448.72;10073037;28;20535;-71
2021/12/06 04:02:23;;;;;;;45.70;25.55;;;;;;;0.69;100.00;101447.91;10072911;28;20203;-71
2021/12/06 04:07:22;;;;;;;44.72;24.10;;;;;;;0.77;100.00;101442.19;10070822;28;20086;-71
2021/12/06 04:12:18;;;;;;;45.67;25.52;;;;;;;0.83;100.00;101446.59;10074541;28;20051;-72
2021/12/06 04:17:15;;;;;;;42.50;24.70;;;;;;;0.88;100.00;101449.41;10074269;28;20458;-72
2021/12/06 04:22:12;;;;;;;45.05;26.05;;;;;;;0.93;100.00;101446.84;10073507;28;20410;-72
2021/12/06 04:27:14;;;;;;;45.65;26.05;;;;;;;0.98;100.00;101465.81;10083663;28;20050;-72
2021/12/06 04:32:12;;;;;;;44.97;25.70;;;;;;;1.01;100.00;101470.72;10073294;28;20039;-72
2021/12/06 04:37:08;;;;;;;42.42;22.92;;;;;;;1.01;100.00;101459.94;10069023;28;20055;-72
2021/12/06 04:42:06;;;;;;;43.83;24.58;;;;;;;0.98;100.00;101465.00;10073618;28;20528;-72
2021/12/06 04:47:03;;;;;;;38.40;21.75;;;;;;;0.94;100.00;101470.03;10065197;28;20043;-72
2021/12/06 04:52:03;;;;;;;44.78;25.80;;;;;;;1.02;100.00;101476.91;10072600;28;20078;-73
2021/12/06 04:57:06;;;;;;;43.20;23.48;;;;;;;1.14;100.00;101490.38;10066961;28;20051;-72
2021/12/06 05:02:06;;;;;;;;;;;;;;;1.10;100.00;101505.38;10068736;28;20075;-72
2021/12/06 05:07:13;;;;;;;37.55;18.70;;;;;;;1.32;100.00;101513.66;10067125;28;19926;-72
2021/12/06 05:12:14;;;;;;;36.42;20.63;;;;;;;1.35;100.00;101513.22;10068087;28;20175;-73
2021/12/06 05:17:11;;;;;;;32.15;19.15;;;;;;;1.36;100.00;101504.88;10053667;28;20084;-71
2021/12/06 05:22:07;;;;;;;33.65;19.98;;;;;;;1.42;100.00;101506.63;10049769;28;20051;-70
2021/12/06 05:27:07;;;;;;;30.45;18.52;;;;;;;1.42;100.00;101525.50;10044552;28;20047;-69
2021/12/06 05:32:15;;;;;;;32.47;18.75;;;;;;;1.45;100.00;101514.22;10046190;28;20536;-70
2021/12/06 05:37:15;;;;;;;29.87;18.20;;;;;;;1.42;100.00;101519.28;10054381;28;20074;-68
2021/12/06 05:42:12;;;;;;;31.17;19.00;;;;;;;1.49;100.00;101529.94;10081653;28;20561;-67
2021/12/06 05:47:09;;;;;;;29.98;17.02;;;;;;;1.50;100.00;101542.34;10060119;28;20139;-68
2021/12/06 05:52:06;;;;;;;31.20;17.73;;;;;;;1.55;100.00;101555.94;10072074;28;20070;-66
2021/12/06 05:57:05;;;;;;;29.00;17.95;;;;;;;1.53;100.00;101560.72;10070977;28;20046;-67
2021/12/06 06:02:02;;;;;;;28.60;16.02;;;;;;;1.53;100.00;101558.84;10065450;28;20055;-69
2021/12/06 06:06:59;;;;;;;28.80;16.02;;;;;;;1.50;100.00;101570.13;10072128;28;20039;-69
2021/12/06 06:11:59;;;;;;;24.05;14.55;;;;;;;1.43;100.00;101572.94;10070605;28;20098;-69
2021/12/06 06:17:03;;;;;;;26.88;16.05;;;;;;;1.38;100.00;101572.81;10077959;28;20066;-69
2021/12/06 06:21:59;;;;;;;28.25;15.95;;;;;;;1.42;100.00;101574.00;10074173;28;20071;-69
2021/12/06 06:26:56;;;;;;;30.20;16.17;;;;;;;1.43;100.00;101586.41;10068350;28;20066;-69
2021/12/06 06:31:53;;;;;;;29.25;17.33;;;;;;;1.60;100.00;101596.47;10067346;28;20564;-68
2021/12/06 06:36:50;;;;;;;25.42;15.35;;;;;;;1.64;100.00;101597.63;10067283;28;20110;-68
2021/12/06 06:41:47;;;;;;;27.02;16.45;;;;;;;1.64;100.00;101597.63;10079598;28;20079;-68
2021/12/06 06:46:45;;;;;;;28.60;18.05;;;;;;;1.54;100.00;101598.25;10065453;28;20067;-69
2021/12/06 06:51:43;;;;;;;32.13;17.67;;;;;;;1.57;100.00;101613.13;10069012;28;20075;-69
2021/12/06 06:56:40;;;;;;;27.00;15.63;;;;;;;1.54;100.00;101613.59;10074371;28;20070;-69
2021/12/06 07:01:37;;;;;;;27.08;16.48;;;;;;;1.54;100.00;101608.22;10074506;28;20051;-69
2021/12/06 07:06:37;;;;;;;30.52;17.60;;;;;;;1.52;100.00;101621.09;10072519;28;20055;-69
2021/12/06 07:11:33;;;;;;;24.95;16.30;;;;;;;1.51;100.00;101619.44;10075670;28;20051;-69
2021/12/06 07:16:30;;;;;;;26.02;16.35;;;;;;;1.38;100.00;101615.94;10074221;28;20513;-69
2021/12/06 07:21:27;;;;;;;23.83;14.95;;;;;;;1.47;100.00;101619.09;10063510;28;20048;-70
2021/12/06 07:26:23;;;;;;;25.42;14.80;;;;;;;1.38;100.00;101621.34;10054234;28;20111;-69
2021/12/06 07:31:21;;;;;;;23.60;15.68;;;;;;;1.38;100.00;101620.50;10066419;28;20054;-69
2021/12/06 07:36:20;;;;;;;23.77;14.82;;;;;;;1.32;100.00;101616.88;10066867;28;20506;-69
2021/12/06 07:41:19;;;;;;;22.92;13.95;;;;;;;1.33;100.00;101618.53;10054811;28;20047;-69
2021/12/06 07:46:15;;;;;;;23.05;13.77;;;;;;;1.42;100.00;101617.13;10059733;28;20074;-69
2021/12/06 07:51:12;;;;;;;23.40;14.30;;;;;;;1.31;100.00;101615.25;10065690;28;20556;-70
2021/12/06 07:56:09;;;;;;;25.20;14.15;;;;;;;1.19;100.00;101617.94;10062143;28;20062;-70
2021/12/06 08:01:06;;;;;;;22.17;13.65;;;;;;;1.40;100.00;101619.22;10052386;28;20104;-69
2021/12/06 08:06:03;;;;;;;25.45;12.52;;;;;;;1.35;100.00;101613.72;10047644;28;20043;-70
2021/12/06 08:11:05;;;;;;;27.13;15.57;;;;;;;1.36;100.00;101618.03;10070203;28;20051;-69
2021/12/06 08:16:06;;;;;;;25.88;15.77;;;;;;;1.42;100.00;101611.72;10065526;28;20387;-69
2021/12/06 08:21:04;;;;;;;24.88;13.43;;;;;;;1.17;100.00;101625.41;10055292;28;20094;-69
2021/12/06 08:26:05;;;;;;;22.95;14.32;;;;;;;1.37;100.00;101630.47;10064637;28;20079;-69
2021/12/06 08:31:03;;;;;;;24.63;14.93;;;;;;;1.38;100.00;101621.34;10068238;28;20409;-70
2021/12/06 08:36:00;;;;;;;24.20;14.75;;;;;;;1.35;100.00;101627.19;10067888;28;20469;-69
2021/12/06 08:40:59;;;;;;;23.00;14.00;;;;;;;1.58;100.00;101626.38;10068609;28;20047;-69
2021/12/06 08:46:08;;;;;;;23.92;13.30;;;;;;;1.55;100.00;101605.25;10069950;28;20117;-69
2021/12/06 08:51:14;;;;;;;26.20;14.02;;;;;;;1.43;100.00;101585.59;10069558;28;20050;-69
2021/12/06 08:56:11;;;;;;;24.02;13.98;;;;;;;1.29;100.00;101589.59;10069195;28;20039;-69
2021/12/06 09:01:09;;;;;;;22.55;14.13;;;;;;;1.46;100.00;101580.56;10069798;28;20166;-69
2021/12/06 09:06:26;;;;;;;26.60;14.45;;;;;;;1.58;100.00;101577.00;10067499;28;20461;-69
2021/12/06 09:11:22;;;;;;;21.65;13.23;;;;;;;1.46;100.00;101588.66;10070157;28;20138;-69
2021/12/06 09:16:19;;;;;;;20.83;12.48;;;;;;;1.57;100.00;101591.56;10065071;28;20090;-69
2021/12/06 09:21:18;;;;;;;24.20;14.25;;;;;;;1.65;100.00;101588.50;10067053;28;20043;-69
2021/12/06 09:26:15;;;;;;;21.35;12.95;;;;;;;1.72;100.00;101589.19;10065100;28;20442;-69
2021/12/06 09:31:13;;;;;;;16.40;11.18;;;;;;;1.95;100.00;101592.88;10071901;28;20564;-69
2021/12/06 09:36:12;;;;;;;25.60;13.05;;;;;;;1.92;100.00;101604.16;10072926;28;20044;-69
2021/12/06 09:41:17;;;;;;;21.63;13.85;;;;;;;1.93;100.00;101600.41;10054762;28;20040;-69
2021/12/06 09:46:14;;;;;;;21.42;12.88;;;;;;;2.05;100.00;101603.91;10049663;28;20044;-69
2021/12/06 09:51:17;;;;;;;21.13;12.82;;;;;;;2.11;100.00;101602.91;10066744;28;20134;-69
2021/12/06 09:56:23;;;;;;;21.27;11.73;;;;;;;2.08;100.00;101608.81;10071672;28;20067;-69
2021/12/06 10:01:25;;;;;;;20.90;13.10;;;;;;;2.02;100.00;101604.34;10063180;28;20055;-69
2021/12/06 10:06:23;;;;;;;25.38;13.35;;;;;;;2.05;100.00;101598.50;10052216;28;20103;-69
2021/12/06 10:11:21;;;;;;;24.17;14.18;;;;;;;2.12;100.00;101614.56;10066966;28;20097;-69
2021/12/06 10:16:19;;;;;;;23.45;14.20;;;;;;;2.04;100.00;101613.03;10067465;28;20043;-69
2021/12/06 10:21:17;;;;;;;24.63;14.68;;;;;;;2.19;100.00;101610.66;10065929;28;20067;-69
2021/12/06 10:26:17;;;;;;;24.52;15.48;;;;;;;2.22;100.00;101604.78;10066902;28;20552;-69
2021/12/06 10:31:15;;;;;;;27.23;15.82;;;;;;;2.28;100.00;101609.22;10075570;28;20552;-69
2021/12/06 10:36:15;;;;;;;25.20;13.57;;;;;;;2.36;100.00;101604.50;10071867;28;20051;-69
2021/12/06 10:41:15;;;;;;;29.55;16.42;;;;;;;2.03;100.00;101595.22;10076972;28;20053;-70
2021/12/06 10:46:16;;;;;;;30.15;16.33;;;;;;;2.33;100.00;101583.41;10090604;28;20101;-69
2021/12/06 10:51:18;;;;;;;29.63;16.15;;;;;;;2.38;100.00;101554.59;10075932;28;20497;-69
2021/12/06 10:56:21;;;;;;;31.77;16.30;;;;;;;2.15;100.00;101539.34;10073755;28;20047;-69
2021/12/06 11:01:27;;;;;;;31.58;17.52;;;;;;;2.18;100.00;101530.78;10075402;28;20098;-68
2021/12/06 11:06:30;;;;;;;32.38;18.77;;;;;;;1.92;100.00;101515.97;10068645;28;20051;-68
2021/12/06 11:11:31;;;;;;;34.73;18.97;;;;;;;1.96;100.00;101508.22;10075558;28;20069;-69
2021/12/06 11:16:34;;;;;;;31.90;19.08;;;;;;;1.98;100.00;101506.13;10074621;28;20055;-69
2021/12/06 11:21:33;;;;;;;;;;;;;;;1.86;100.00;101523.16;10072651;28;20083;-69
2021/12/06 11:26:31;;;;;;;36.42;22.52;;;;;;;1.95;100.00;101525.47;10070900;28;19957;-70
2021/12/06 11:31:27;;;;;;;32.92;19.95;;;;;;;1.87;100.00;101516.69;10072560;28;20485;-69
2021/12/06 11:36:25;;;;;;;37.35;21.25;;;;;;;1.80;100.00;101521.41;10072941;28;20051;-69
2021/12/06 11:41:22;;;;;;;34.33;21.08;;;;;;;1.85;100.00;101523.38;10057829;28;20074;-69
2021/12/06 11:46:30;;;;;;;37.08;21.20;;;;;;;1.76;100.00;101525.63;10071525;28;20058;-70
2021/12/06 11:51:27;;;;;;;36.22;20.05;;;;;;;1.95;100.00;101538.94;10064411;28;20071;-69
2021/12/06 11:56:31;;;;;;;36.10;20.92;;;;;;;2.03;100.00;101519.69;10074578;28;20071;-70
2021/12/06 12:01:31;;;;;;;38.22;22.35;;;;;;;1.91;100.00;101518.94;10073497;28;20555;-69
2021/12/06 12:06:40;;;;;;;38.53;22.95;;;;;;;1.90;100.00;101510.00;10070436;28;20130;-69
2021/12/06 12:12:11;;;;;;;40.17;23.88;;;;;;;1.81;100.00;101512.28;10070812;28;20071;-69
2021/12/06 12:17:21;;;;;;;41.78;23.15;;;;;;;1.80;100.00;101505.22;10069797;28;20106;-69
2021/12/06 12:22:19;;;;;;;48.00;25.70;;;;;;;1.73;100.00;101507.25;10071378;28;20047;-69
2021/12/06 12:32:16;;;;;;;46.30;24.95;;;;;;;1.82;100.00;101496.91;10072903;28;20684;-69
2021/12/06 12:37:15;;;;;;;48.00;26.00;;;;;;;1.75;100.00;101502.44;10066053;28;20044;-69
2021/12/06 12:42:16;;;;;;;44.85;24.63;;;;;;;1.75;100.00;101491.66;10053313;28;20082;-69
2021/12/06 12:47:19;;;;;;;47.05;25.23;;;;;;;1.71;100.00;101498.56;10061764;28;20390;-69
2021/12/06 12:52:33;;;;;;;44.10;24.02;;;;;;;1.80;100.00;101494.44;10058820;28;20058;-69
2021/12/06 12:57:37;;;;;;;40.20;23.52;;;;;;;1.95;100.00;101476.91;10053703;28;20158;-69
2021/12/06 13:02:38;;;;;;;44.88;25.73;;;;;;;1.91;100.00;101478.47;10055462;28;20047;-69
2021/12/06 13:07:37;;;;;;;47.92;26.60;;;;;;;1.97;100.00;101467.50;10061130;28;20054;-69
2021/12/06 13:12:33;;;;;;;47.05;26.67;;;;;;;1.87;100.00;101470.03;10062688;28;20086;-68
2021/12/06 13:17:45;;;;;;;50.28;26.02;;;;;;;1.85;100.00;101455.97;10060069;28;20047;-69
2021/12/06 13:22:52;;;;;;;53.13;27.63;;;;;;;1.76;100.00;101468.19;10066412;28;20063;-69
2021/12/06 13:28:06;;;;;;;47.60;27.02;;;;;;;1.73;100.00;101463.31;10062628;28;20039;-69
2021/12/06 13:33:10;;;;;;;47.28;26.05;;;;;;;1.70;100.00;101464.59;10068615;28;20063;-69
2021/12/06 13:38:12;;;;;;;45.58;25.48;;;;;;;1.65;100.00;101459.94;10055700;28;20547;-69
2021/12/06 13:43:24;;;;;;;47.60;25.88;;;;;;;1.66;100.00;101460.75;10052161;28;20110;-69
2021/12/06 13:48:25;;;;;;;38.50;23.05;;;;;;;1.60;100.00;101469.78;10047747;28;20124;-69
2021/12/06 13:53:32;;;;;;;42.33;24.80;;;;;;;1.51;100.00;101446.94;10043974;28;20242;-69
2021/12/06 13:58:31;;;;;;;43.88;26.27;;;;;;;1.59;100.00;101454.66;10055462;28;20086;-69
2021/12/06 14:03:39;;;;;;;45.53;25.73;;;;;;;1.62;100.00;101454.19;10061884;28;20047;-69
2021/12/06 14:08:42;;;;;;;48.72;26.55;;;;;;;1.75;100.00;101443.13;10074948;28;20512;-69
2021/12/06 14:13:40;;;;;;;44.85;24.92;;;;;;;1.76;100.00;101433.97;10076355;28;20043;-68
2021/12/06 14:18:36;;;;;;;49.28;26.33;;;;;;;1.65;100.00;101432.16;10077809;28;20100;-69
2021/12/06 14:23:34;;;;;;;51.30;28.30;;;;;;;1.60;100.00;101423.94;10073531;28;20048;-69
2021/12/06 14:28:34;;;;;;;48.05;26.90;;;;;;;1.49;100.00;101427.53;10077174;28;20086;-69
2021/12/06 14:33:33;;;;;;;51.13;27.73;;;;;;;1.47;100.00;101414.28;10071043;28;20078;-69
2021/12/06 14:38:32;;;;;;;52.25;28.10;;;;;;;1.69;100.00;101403.63;10068641;28;20079;-70
2021/12/06 14:43:30;;;;;;;44.75;25.67;;;;;;;1.60;100.00;101407.78;10067921;28;20048;-69
2021/12/06 14:48:27;;;;;;;49.03;25.08;;;;;;;1.50;100.00;101407.59;10069548;28;20071;-69
2021/12/06 14:53:51;;;;;;;49.53;26.92;;;;;;;1.62;100.00;101397.56;10064366;28;20054;-69
2021/12/06 14:58:46;;;;;;;42.20;24.38;;;;;;;1.63;100.00;101380.34;10074266;28;20047;-70
2021/12/06 15:03:52;;;;;;;41.30;23.27;;;;;;;1.49;100.00;101373.63;10063336;28;20466;-70
2021/12/06 15:08:57;;;;;;;45.28;24.25;;;;;;;1.35;100.00;101356.94;10072936;28;20546;-70
2021/12/06 15:13:56;;;;;;;41.80;23.33;;;;;;;1.37;100.00;101357.47;10071772;28;20078;-69
2021/12/06 15:18:54;;;;;;;45.65;24.98;;;;;;;1.30;100.00;101354.13;10063855;28;20555;-69
2021/12/06 15:23:57;;;;;;;44.30;24.25;;;;;;;1.17;100.00;101339.06;10068132;28;20075;-70
2021/12/06 15:28:56;;;;;;;50.65;27.38;;;;;;;1.33;100.00;101342.88;10065677;28;20043;-70
2021/12/06 15:33:56;;;;;;;41.05;23.52;;;;;;;1.23;100.00;101332.69;10066992;28;20055;-69
2021/12/06 15:39:00;;;;;;;44.55;24.08;;;;;;;1.16;100.00;101332.03;10072270;28;20393;-69
2021/12/06 15:44:10;;;;;;;47.58;26.58;;;;;;;1.22;100.00;101331.09;10069500;28;20043;-70
2021/12/06 15:49:07;;;;;;;47.72;25.02;;;;;;;1.36;100.00;101327.03;10086413;28;20047;-70
2021/12/06 15:54:16;;;;;;;44.45;24.38;;;;;;;1.40;100.00;101332.78;10070589;28;20081;-70
2021/12/06 15:59:14;;;;;;;42.67;23.88;;;;;;;1.27;100.00;101323.09;10071354;28;20575;-71
2021/12/06 16:04:16;;;;;;;46.35;23.90;;;;;;;1.40;100.00;101312.03;10072913;28;20043;-70
2021/12/06 16:09:16;;;;;;;48.20;26.40;;;;;;;1.36;100.00;101310.06;10071018;28;20462;-70
2021/12/06 16:14:12;;;;;;;45.85;24.58;;;;;;;1.21;100.00;101307.91;10068605;28;20051;-69
2021/12/06 16:19:13;;;;;;;52.22;27.35;;;;;;;1.00;100.00;101294.03;10904261;23;20161;-70
2021/12/06 16:24:12;;;;;;;46.90;24.50;;;;;;;1.13;100.00;101281.34;10113546;28;20054;-68
2021/12/06 16:29:16;;;;;;;47.95;25.75;;;;;;;1.08;100.00;101281.25;10121223;28;20042;-69
2021/12/06 16:34:17;;;;;;;51.65;26.77;;;;;;;1.01;100.00;101279.50;10125650;28;20046;-69
2021/12/06 16:39:55;;;;;;;52.88;28.88;;;;;;;0.90;100.00;101274.97;10102734;28;20826;-69
2021/12/06 16:45:01;;;;;;;56.38;28.73;;;;;;;1.17;100.00;101279.81;10089009;28;20108;-70
2021/12/06 16:50:06;;;;;;;51.30;26.83;;;;;;;1.09;100.00;101280.19;10101392;28;20089;-69
2021/12/06 16:55:31;;;;;;;45.20;26.63;;;;;;;1.12;100.00;101271.63;10116589;28;20055;-70
2021/12/06 17:00:40;;;;;;;46.78;28.20;;;;;;;1.22;100.00;101255.66;10134502;28;20053;-69
2021/12/06 17:05:43;;;;;;;48.78;25.30;;;;;;;1.19;100.00;101256.16;10112128;28;20050;-69
2021/12/06 17:10:53;;;;;;;49.65;24.92;;;;;;;1.21;100.00;101249.47;10119151;28;20049;-69
2021/12/06 17:15:57;;;;;;;53.33;27.65;;;;;;;1.18;100.00;101243.72;10109629;28;20077;-69
2021/12/06 17:21:07;;;;;;;51.38;27.38;;;;;;;1.16;100.00;101256.59;10110587;28;20126;-69
2021/12/06 17:26:10;;;;;;;52.25;26.60;;;;;;;1.17;100.00;101253.69;10120084;28;20066;-69
2021/12/06 17:31:10;;;;;;;49.80;24.33;;;;;;;1.15;100.00;101255.78;10124901;28;20094;-69
2021/12/06 17:36:07;;;;;;;52.85;26.95;;;;;;;1.11;100.00;101254.63;10107669;28;20508;-68
2021/12/06 17:41:03;;;;;;;53.15;27.73;;;;;;;1.17;100.00;101242.09;10111435;28;20511;-68
2021/12/06 17:46:02;;;;;;;50.65;27.13;;;;;;;1.22;100.00;101244.88;10117260;28;20066;-69
2021/12/06 17:51:11;;;;;;;51.22;28.00;;;;;;;1.21;100.00;101237.88;10124999;28;20104;-69
2021/12/06 17:56:09;;;;;;;49.75;26.45;;;;;;;1.12;100.00;101234.75;10123232;28;20054;-69
2021/12/06 18:01:09;;;;;;;51.70;27.88;;;;;;;1.16;100.00;101235.06;10108061;28;20047;-68
2021/12/06 18:06:25;;;;;;;51.42;27.08;;;;;;;1.22;100.00;101228.72;10118807;28;20495;-69
2021/12/06 18:11:22;;;;;;;48.72;26.00;;;;;;;1.21;100.00;101227.09;10120065;28;20109;-68
2021/12/06 18:16:18;;;;;;;49.40;25.67;;;;;;;1.20;100.00;101220.88;10118748;28;20053;-69
2021/12/06 18:21:15;;;;;;;47.88;27.13;;;;;;;1.24;100.00;101210.44;10121340;28;20458;-69
2021/12/06 18:26:12;;;;;;;47.00;26.08;;;;;;;1.22;100.00;101212.56;10108581;28;20424;-69
2021/12/06 18:31:10;;;;;;;47.88;26.58;;;;;;;1.23;100.00;101203.41;10104447;28;20532;-68
2021/12/06 18:36:09;;;;;;;45.97;24.15;;;;;;;1.16;100.00;101210.81;10095787;28;20051;-69
2021/12/06 18:41:09;;;;;;;52.08;27.30;;;;;;;1.15;100.00;101193.84;10077443;28;20047;-69
2021/12/06 18:46:07;;;;;;;47.38;26.90;;;;;;;1.18;100.00;101195.25;10104021;28;20074;-69
2021/12/06 18:51:06;;;;;;;46.25;27.42;;;;;;;0.95;100.00;101186.25;10100836;28;20472;-69
2021/12/06 18:56:04;;;;;;;47.63;27.10;;;;;;;1.16;100.00;101191.97;10125782;28;20051;-70
2021/12/06 19:01:02;;;;;;;47.05;26.52;;;;;;;1.20;100.00;101187.72;10108402;28;20159;-69
2021/12/06 19:05:59;;;;;;;43.10;25.75;;;;;;;1.10;100.00;101188.38;10099800;28;20067;-69
2021/12/06 19:10:58;;;;;;;43.80;25.48;;;;;;;1.17;100.00;101182.84;10099520;28;20070;-70
2021/12/06 19:15:56;;;;;;;45.92;26.02;;;;;;;1.07;100.00;101177.25;10102615;28;20062;-69
2021/12/06 19:20:53;;;;;;;44.83;24.50;;;;;;;0.95;100.00;101159.31;10117358;28;20058;-69
2021/12/06 19:25:53;;;;;;;44.83;25.13;;;;;;;0.92;100.00;101158.97;10113866;28;20097;-69
2021/12/06 19:30:54;;;;;;;49.58;26.98;;;;;;;0.91;100.00;101155.47;10119325;28;20582;-69
2021/12/06 19:35:55;;;;;;;44.92;27.52;;;;;;;0.96;100.00;101144.78;10103375;28;20125;-70
2021/12/06 19:40:54;;;;;;;45.55;25.98;;;;;;;0.85;100.00;101142.97;10125435;28;20043;-69
2021/12/06 19:45:51;;;;;;;45.25;25.88;;;;;;;0.99;100.00;101128.13;10109881;28;20051;-69
2021/12/06 19:50:49;;;;;;;46.53;25.63;;;;;;;0.96;100.00;101123.25;10110339;28;20118;-69
2021/12/06 19:55:50;;;;;;;47.90;27.05;;;;;;;0.91;100.00;101125.84;10115548;28;20058;-70
2021/12/06 20:00:47;;;;;;;46.30;26.13;;;;;;;0.95;100.00;101116.25;10111831;28;20039;-69
2021/12/06 20:05:46;;;;;;;43.80;23.33;;;;;;;0.92;100.00;101105.94;10114226;28;20071;-69
2021/12/06 20:10:45;;;;;;;41.40;24.67;;;;;;;0.94;100.00;101113.78;10111387;28;20093;-69
2021/12/06 20:15:42;;;;;;;46.50;26.33;;;;;;;0.95;100.00;101104.63;10115385;28;20042;-69
2021/12/06 20:20:39;;;;;;;44.13;25.15;;;;;;;0.90;100.00;101102.66;10105966;28;20081;-69
2021/12/06 20:25:36;;;;;;;43.75;25.27;;;;;;;0.91;100.00;101103.50;10107924;28;20069;-69
2021/12/06 20:30:34;;;;;;;44.83;24.80;;;;;;;0.82;100.00;101095.00;10104800;28;20464;-69
2021/12/06 20:35:30;;;;;;;42.22;24.73;;;;;;;0.85;100.00;101094.50;10099932;28;20074;-73
2021/12/06 20:40:28;;;;;;;40.53;23.85;;;;;;;0.77;100.00;101086.84;10121960;28;20043;-73
2021/12/06 20:45:27;;;;;;;43.65;24.17;;;;;;;0.85;100.00;101075.66;10110880;28;20058;-71
2021/12/06 20:50:24;;;;;;;43.42;24.73;;;;;;;0.81;100.00;101072.66;10095873;28;20428;-71
2021/12/06 20:55:22;;;;;;;38.78;22.60;;;;;;;0.93;100.00;101052.91;10112264;28;20061;-70
2021/12/06 21:00:21;;;;;;;43.28;23.75;;;;;;;0.93;100.00;101045.66;10111290;28;20051;-72
2021/12/06 21:05:18;;;;;;;42.88;24.05;;;;;;;0.89;100.00;101025.66;10117517;28;20077;-72
2021/12/06 21:10:25;;;;;;;41.63;23.80;;;;;;;0.89;100.00;101025.66;10104456;28;20072;-74
2021/12/06 21:20:25;;;;;;;40.45;23.80;;;;;;;0.82;100.00;101000.78;10105360;28;20035;-71
2021/12/06 21:25:21;;;;;;;38.97;22.10;;;;;;;0.73;100.00;100989.63;10108845;28;20055;-71
2021/12/06 21:30:18;;;;;;;41.22;22.92;;;;;;;0.65;100.00;100971.19;10121512;28;20082;-70
2021/12/06 21:35:15;;;;;;;40.08;21.75;;;;;;;0.67;100.00;100962.88;10116716;28;20047;-70
2021/12/06 21:40:12;;;;;;;40.95;22.45;;;;;;;0.41;100.00;100959.78;10124384;28;20055;-73
2021/12/06 21:45:09;;;;;;;41.25;22.73;;;;;;;0.57;100.00;100953.56;10129558;28;20105;-71
2021/12/06 21:50:08;;;;;;;39.58;22.90;;;;;;;0.50;100.00;100939.47;10139228;28;20082;-71
2021/12/06 21:55:06;;;;;;;42.38;22.98;;;;;;;0.49;100.00;100934.31;10127951;28;20054;-71
2021/12/06 22:00:08;;;;;;;41.10;23.15;;;;;;;0.42;100.00;100923.75;10123593;28;20129;-70
2021/12/06 22:05:04;;;;;;;40.85;23.08;;;;;;;0.35;100.00;100920.41;10129758;28;20054;-71
2021/12/06 22:10:19;;;;;;;44.15;22.63;;;;;;;0.36;100.00;100908.59;10133068;28;20093;-71
2021/12/06 22:15:18;;;;;;;39.25;21.67;;;;;;;0.39;100.00;100902.72;10115899;28;20043;-71
2021/12/06 22:20:14;;;;;;;41.42;23.63;;;;;;;0.42;100.00;100902.25;10129640;28;20439;-71
2021/12/06 22:25:10;;;;;;;42.70;21.95;;;;;;;0.38;100.00;100895.72;10131204;28;20439;-72
2021/12/06 22:30:12;;;;;;;44.58;22.52;;;;;;;0.29;100.00;100891.81;10131773;28;20644;-71
2021/12/06 22:35:10;;;;;;;39.63;21.58;;;;;;;0.35;100.00;100885.44;10136627;28;20456;-73
2021/12/06 22:40:08;;;;;;;41.00;21.58;;;;;;;0.38;100.00;100869.63;10134714;28;20074;-70
2021/12/06 22:45:06;;;;;;;44.22;23.05;;;;;;;0.35;100.00;100870.13;10131987;28;20121;-72
2021/12/06 22:50:06;;;;;;;41.72;22.92;;;;;;;0.31;100.00;100862.78;10129433;28;20066;-70